KBBD/BBD METAR and TAF weather

Enter ICAO airport designator
Station Type Date Time Source
KBBD METAR 2020/06/05 11:55 UTC NOAA

KBBD 051155Z AUTO 00000KT 10SM FEW010 22/21 A2996 RMK AO2


Station Type Date Time Source
KBBD Decoded METAR 2020/06/05 11:55 UTC NOAA

Brady, Curtis Field Airport, TX, United States (KBBD) 31-10-45N 099-19-26W
Jun 05, 2020 - 07:55 AM EDT / 2020.06.05 1155 UTC
Wind: Calm:0
Visibility: 10 mile(s):0
Sky conditions: mostly clear
Temperature: 71 F (22 C)
Dew Point: 69 F (21 C)
Relative Humidity: 94%
Pressure (altimeter): 29.96 in. Hg (1014 hPa)
ob: KBBD 051155Z AUTO 00000KT 10SM FEW010 22/21 A2996 RMK AO2
cycle: 12

Station Type Date Time Source
KBBD TAF 2020/06/05 12:22 UTC NOAA

TAF KBBD 051120Z 0512/0612 18006KT P6SM BKN015
FM051600 15008KT P6SM SKC
FM060000 13005KT P6SM SKC

Example: see airport list